createdAt,value
2019-02-19T00:25:06.771Z,68.65
2019-02-19T00:27:35.268Z,68.64
2019-02-19T00:30:04.165Z,68.54
2019-02-19T00:32:32.564Z,69.17
2019-02-19T00:35:01.268Z,69.24
2019-02-19T00:37:29.950Z,69.10
2019-02-19T00:39:58.400Z,69.14
2019-02-19T00:42:27.115Z,69.20
2019-02-19T00:44:55.559Z,69.10
2019-02-19T00:47:23.933Z,68.87
2019-02-19T00:49:52.394Z,69.38
2019-02-19T00:52:20.895Z,69.12
2019-02-19T00:54:49.288Z,69.02
2019-02-19T00:57:17.907Z,68.94
2019-02-19T00:59:46.372Z,69.27
2019-02-19T01:02:14.845Z,69.09
2019-02-19T01:04:43.238Z,69.01
2019-02-19T01:07:11.626Z,69.09
2019-02-19T01:09:40.082Z,69.41
2019-02-19T01:12:08.523Z,69.37
2019-02-19T01:14:37.052Z,69.45
2019-02-19T01:17:05.442Z,69.24
2019-02-19T01:19:33.905Z,69.41
2019-02-19T01:22:02.304Z,69.44
2019-02-19T01:24:30.738Z,69.40
2019-02-19T01:26:59.520Z,69.39
2019-02-19T01:29:28.224Z,69.38
2019-02-19T01:31:56.616Z,69.40
2019-02-19T01:34:24.805Z,69.51
2019-02-19T01:36:53.217Z,69.56
2019-02-19T01:39:21.655Z,69.34
2019-02-19T01:41:50.069Z,69.40
2019-02-19T01:44:18.503Z,69.16
2019-02-19T01:46:46.951Z,69.33
2019-02-19T01:49:15.580Z,69.45
2019-02-19T01:51:44.016Z,69.33
2019-02-19T01:54:12.767Z,69.26
2019-02-19T01:56:41.126Z,69.41
2019-02-19T01:59:09.892Z,69.33
2019-02-19T02:01:38.419Z,69.51
2019-02-19T02:04:06.858Z,69.37
2019-02-19T02:06:35.378Z,69.74
2019-02-19T02:09:04.930Z,69.94
2019-02-19T02:11:33.379Z,70.22
2019-02-19T02:14:01.907Z,70.50
2019-02-19T02:16:30.493Z,70.48
2019-02-19T02:18:59.173Z,70.40
2019-02-19T02:21:27.639Z,70.53
2019-02-19T02:23:56.250Z,70.79
2019-02-19T02:26:24.654Z,70.49
2019-02-19T02:28:53.155Z,70.62
2019-02-19T02:31:21.643Z,70.38
2019-02-19T02:33:50.355Z,70.47
2019-02-19T02:36:18.926Z,70.48
2019-02-19T02:38:47.302Z,70.80
2019-02-19T02:41:16.003Z,70.88
2019-02-19T02:43:44.436Z,70.84
2019-02-19T02:46:12.916Z,71.25
2019-02-19T02:48:41.282Z,71.05
2019-02-19T02:51:09.712Z,71.05
2019-02-19T02:53:38.183Z,71.08
2019-02-19T02:56:06.616Z,70.77
2019-02-19T02:58:35.018Z,70.86
2019-02-19T03:01:03.404Z,70.83
2019-02-19T03:03:31.941Z,70.64
2019-02-19T03:06:02.811Z,71.07
2019-02-19T03:08:31.242Z,71.01
2019-02-19T03:10:59.633Z,70.92
2019-02-19T03:13:28.005Z,71.23
2019-02-19T03:16:02.532Z,71.14
2019-02-19T03:18:26.902Z,71.05
2019-02-19T03:20:55.301Z,71.13
2019-02-19T03:23:23.664Z,71.32
2019-02-19T03:25:52.154Z,71.03
2019-02-19T03:28:20.589Z,71.13
2019-02-19T03:30:48.976Z,71.08
2019-02-19T03:33:17.385Z,71.29
2019-02-19T03:35:45.747Z,71.18
2019-02-19T03:38:14.195Z,71.32
2019-02-19T03:40:42.622Z,71.42
2019-02-19T03:43:11.057Z,71.36
2019-02-19T03:45:39.566Z,71.47
2019-02-19T03:48:08.026Z,71.46
2019-02-19T03:50:36.470Z,71.47
2019-02-19T03:53:05.050Z,71.33
2019-02-19T03:55:33.503Z,71.31
2019-02-19T03:58:02.303Z,71.36
2019-02-19T04:00:30.784Z,71.11
2019-02-19T04:02:59.231Z,71.10
2019-02-19T04:05:27.681Z,71.17
2019-02-19T04:07:56.065Z,71.36
2019-02-19T04:10:24.425Z,71.52
2019-02-19T04:12:52.956Z,71.45
2019-02-19T04:15:21.488Z,71.47
2019-02-19T04:17:49.957Z,71.48
2019-02-19T04:20:18.333Z,71.26
2019-02-19T04:22:46.731Z,71.36
2019-02-19T04:25:15.137Z,71.49
2019-02-19T04:27:43.523Z,71.41
2019-02-19T04:30:12.036Z,71.49
2019-02-19T04:32:40.453Z,71.55
2019-02-19T04:35:09.258Z,71.79
2019-02-19T04:37:37.789Z,71.77
2019-02-19T04:40:08.007Z,71.48
2019-02-19T04:42:36.434Z,71.33
2019-02-19T04:45:05.658Z,71.40
2019-02-19T04:47:34.064Z,71.57
2019-02-19T04:50:02.446Z,71.59
2019-02-19T04:52:31.154Z,71.72
2019-02-19T04:54:59.582Z,71.91
2019-02-19T04:57:28.058Z,71.79
2019-02-19T04:59:56.832Z,71.82
2019-02-19T05:02:25.239Z,71.89
2019-02-19T05:04:53.602Z,71.80
2019-02-19T05:07:22.034Z,71.93
2019-02-19T05:09:50.555Z,72.44
2019-02-19T05:12:18.918Z,72.62
2019-02-19T05:14:47.503Z,72.69
2019-02-19T05:17:16.439Z,72.63
2019-02-19T05:19:44.970Z,72.64
2019-02-19T05:22:13.405Z,73.06
2019-02-19T05:24:41.857Z,73.24
2019-02-19T05:27:10.405Z,73.31
2019-02-19T05:29:38.803Z,73.30
2019-02-19T05:32:07.259Z,73.10
2019-02-19T05:34:35.643Z,73.23
2019-02-19T05:37:04.086Z,73.20
2019-02-19T05:39:32.532Z,73.35
2019-02-19T05:42:00.936Z,73.49
2019-02-19T05:44:29.617Z,73.37
2019-02-19T05:46:58.430Z,73.18
2019-02-19T05:49:26.934Z,73.23
2019-02-19T05:51:55.470Z,72.91
2019-02-19T05:54:23.951Z,72.96
2019-02-19T05:56:52.410Z,72.99
2019-02-19T05:59:20.825Z,73.08
2019-02-19T06:01:49.635Z,73.09
2019-02-19T06:04:18.302Z,73.09
2019-02-19T06:06:46.689Z,73.09
2019-02-19T06:09:15.418Z,72.83
2019-02-19T06:11:43.886Z,72.77
2019-02-19T06:14:12.336Z,72.78
2019-02-19T06:16:40.966Z,72.89
2019-02-19T06:19:09.400Z,72.78
2019-02-19T06:21:38.002Z,72.69
2019-02-19T06:24:06.616Z,72.92
2019-02-19T06:26:35.029Z,73.11
2019-02-19T06:29:03.625Z,72.83
2019-02-19T06:31:32.018Z,72.83
2019-02-19T06:34:00.420Z,73.00
2019-02-19T06:36:29.151Z,72.92
2019-02-19T06:38:57.583Z,72.99
2019-02-19T06:41:26.073Z,73.00
2019-02-19T06:43:54.507Z,72.93
2019-02-19T06:46:22.913Z,72.78
2019-02-19T06:48:51.298Z,72.68
2019-02-19T06:51:19.773Z,72.67
2019-02-19T06:53:48.236Z,72.68
2019-02-19T06:56:16.691Z,72.67
2019-02-19T06:58:45.055Z,72.77
2019-02-19T07:01:13.804Z,72.48
2019-02-19T07:03:43.876Z,72.65
2019-02-19T07:06:12.328Z,72.39
2019-02-19T07:08:40.764Z,72.58
2019-02-19T07:11:09.386Z,72.53
2019-02-19T07:13:37.795Z,72.98
2019-02-19T07:16:06.237Z,72.50
2019-02-19T07:18:34.757Z,72.31
2019-02-19T07:21:03.153Z,72.06
2019-02-19T07:23:31.814Z,71.79
2019-02-19T07:26:00.279Z,71.92
2019-02-19T07:28:28.764Z,71.79
2019-02-19T07:30:58.768Z,71.78
2019-02-19T07:33:27.167Z,71.28
2019-02-19T07:35:55.672Z,71.04
2019-02-19T07:38:24.146Z,70.96
2019-02-19T07:40:52.667Z,70.77
2019-02-19T07:43:21.106Z,70.31
2019-02-19T07:45:49.857Z,70.44
2019-02-19T07:48:18.354Z,70.39
2019-02-19T07:50:46.838Z,70.05
2019-02-19T07:53:15.221Z,70.11
2019-02-19T07:55:43.690Z,69.89
2019-02-19T07:58:12.137Z,69.81
2019-02-19T08:00:40.624Z,69.94
2019-02-19T08:03:08.995Z,69.76
2019-02-19T08:05:37.460Z,69.62
2019-02-19T08:08:06.072Z,69.25
2019-02-19T08:10:34.525Z,69.52
2019-02-19T08:13:03.031Z,69.36
2019-02-19T08:15:31.509Z,69.21
2019-02-19T08:17:59.951Z,69.17
2019-02-19T08:20:28.422Z,68.68
2019-02-19T08:22:56.776Z,68.51
2019-02-19T08:25:25.333Z,68.27
2019-02-19T08:27:53.986Z,67.90
2019-02-19T08:30:22.438Z,67.87
2019-02-19T08:32:50.968Z,67.52
2019-02-19T08:35:19.455Z,67.41
2019-02-19T08:37:47.963Z,66.98
2019-02-19T08:40:16.444Z,66.87
2019-02-19T08:42:44.808Z,66.53
2019-02-19T08:45:13.211Z,66.57
2019-02-19T08:47:42.852Z,66.85
2019-02-19T08:50:11.535Z,66.74
2019-02-19T08:52:40.042Z,67.00
2019-02-19T08:55:08.513Z,66.71
2019-02-19T08:57:36.864Z,66.81
2019-02-19T09:00:08.449Z,66.86
2019-02-19T09:02:36.960Z,66.44
2019-02-19T09:05:07.112Z,66.15
2019-02-19T09:07:35.561Z,66.03
2019-02-19T09:10:05.885Z,65.78
2019-02-19T09:12:34.265Z,65.95
2019-02-19T09:15:02.757Z,66.26
2019-02-19T09:17:31.157Z,66.71
2019-02-19T09:19:59.699Z,66.73
2019-02-19T09:22:28.508Z,66.68
2019-02-19T09:24:57.277Z,66.87
2019-02-19T09:27:25.858Z,66.99
2019-02-19T09:29:54.226Z,66.85
2019-02-19T09:32:22.713Z,67.05
2019-02-19T09:34:52.665Z,67.38
2019-02-19T09:37:21.183Z,67.46
2019-02-19T09:39:49.991Z,67.44
2019-02-19T09:42:18.479Z,67.42
2019-02-19T09:44:47.002Z,67.52
2019-02-19T09:47:15.507Z,67.61
2019-02-19T09:49:43.940Z,67.76
2019-02-19T09:52:12.351Z,67.76
2019-02-19T09:54:40.968Z,67.91
2019-02-19T09:57:11.063Z,67.51
2019-02-19T09:59:39.612Z,67.44
2019-02-19T10:02:08.171Z,67.78
2019-02-19T10:04:36.528Z,68.20
2019-02-19T10:07:05.062Z,68.03
2019-02-19T10:09:33.515Z,68.10
2019-02-19T10:12:01.970Z,68.42
2019-02-19T10:14:30.553Z,67.98
2019-02-19T10:16:58.969Z,67.77
2019-02-19T10:19:27.400Z,68.22
2019-02-19T10:21:55.883Z,68.30
2019-02-19T10:24:24.302Z,68.41
2019-02-19T10:26:52.746Z,68.01
2019-02-19T10:29:21.206Z,67.89
2019-02-19T10:31:49.665Z,67.54
2019-02-19T10:34:18.121Z,68.04
2019-02-19T10:36:46.660Z,67.94
2019-02-19T10:39:15.068Z,68.30
2019-02-19T10:41:43.539Z,68.85
2019-02-19T10:44:12.010Z,69.43
2019-02-19T10:46:40.432Z,69.41
2019-02-19T10:49:08.834Z,69.49
2019-02-19T10:51:37.203Z,69.53
2019-02-19T10:54:05.754Z,69.55
2019-02-19T10:56:34.312Z,69.35
2019-02-19T10:59:02.716Z,69.62
2019-02-19T11:01:31.247Z,69.41
2019-02-19T11:03:59.681Z,69.33
2019-02-19T11:06:28.127Z,69.30
2019-02-19T11:08:56.670Z,69.35
2019-02-19T11:11:25.089Z,69.46
2019-02-19T11:13:53.538Z,69.50
2019-02-19T11:16:21.959Z,69.57
2019-02-19T11:18:50.330Z,69.11
2019-02-19T11:21:19.880Z,69.21
2019-02-19T11:23:48.635Z,68.76
2019-02-19T11:26:17.097Z,68.71
2019-02-19T11:28:45.569Z,68.31
2019-02-19T11:31:14.001Z,67.75
2019-02-19T11:33:42.400Z,67.99
2019-02-19T11:36:10.795Z,68.03
2019-02-19T11:38:39.252Z,68.44
2019-02-19T11:41:07.702Z,68.53
2019-02-19T11:43:36.255Z,67.95
2019-02-19T11:46:04.885Z,68.19
2019-02-19T11:48:36.973Z,67.99
2019-02-19T11:51:03.543Z,68.42
2019-02-19T11:53:31.958Z,68.35
2019-02-19T11:56:00.594Z,69.03
2019-02-19T11:58:29.066Z,68.98
2019-02-19T12:00:57.628Z,69.09
2019-02-19T12:03:26.000Z,69.27
2019-02-19T12:05:54.458Z,69.34
2019-02-19T12:08:22.923Z,69.08
2019-02-19T12:10:51.578Z,69.19
2019-02-19T12:13:20.385Z,69.08
2019-02-19T12:15:48.845Z,68.70
2019-02-19T12:18:17.390Z,69.04
2019-02-19T12:20:46.115Z,68.74
2019-02-19T12:23:14.569Z,67.98
2019-02-19T12:25:43.228Z,67.94
2019-02-19T12:28:11.662Z,67.53
2019-02-19T12:30:40.128Z,67.67
2019-02-19T12:33:08.608Z,67.88
2019-02-19T12:35:36.991Z,68.05
2019-02-19T12:38:05.404Z,68.41
2019-02-19T12:40:33.881Z,67.98
2019-02-19T12:43:02.254Z,68.12
2019-02-19T12:45:30.663Z,67.83
2019-02-19T12:47:59.220Z,67.29
2019-02-19T12:50:27.764Z,67.82
2019-02-19T12:52:56.158Z,67.46
2019-02-19T12:55:24.652Z,67.70
2019-02-19T12:57:53.160Z,67.40
2019-02-19T13:00:21.625Z,67.06
2019-02-19T13:02:50.153Z,67.63
2019-02-19T13:05:18.550Z,67.15
2019-02-19T13:07:47.214Z,67.42
2019-02-19T13:10:15.570Z,68.05
2019-02-19T13:12:44.058Z,68.40
2019-02-19T13:15:18.337Z,68.19
2019-02-19T13:17:47.231Z,68.06
2019-02-19T13:20:15.683Z,67.38
2019-02-19T13:22:44.222Z,67.59
2019-02-19T13:25:12.852Z,67.44
2019-02-19T13:27:41.326Z,67.27
2019-02-19T13:30:18.242Z,67.16
2019-02-19T13:32:46.730Z,66.91
2019-02-19T13:35:15.264Z,66.13
2019-02-19T13:37:43.935Z,65.83
2019-02-19T13:40:21.571Z,64.92
2019-02-19T13:42:49.965Z,64.96
2019-02-19T13:45:18.399Z,64.81
2019-02-19T13:47:47.233Z,65.36
2019-02-19T13:50:18.231Z,65.04
2019-02-19T13:52:51.042Z,65.11
2019-02-19T13:55:21.118Z,64.82
2019-02-19T13:57:49.561Z,65.06
2019-02-19T14:00:22.450Z,64.63
2019-02-19T14:02:50.843Z,64.53
2019-02-19T14:05:19.277Z,64.04
2019-02-19T14:07:47.815Z,64.14
2019-02-19T14:10:16.215Z,64.10
2019-02-19T14:12:44.671Z,63.80
2019-02-19T14:15:29.924Z,63.81
2019-02-19T14:17:59.043Z,63.93
2019-02-19T14:20:37.697Z,64.04
2019-02-19T14:23:19.534Z,63.71
2019-02-19T14:25:52.302Z,63.23
2019-02-19T14:28:22.346Z,63.10
2019-02-19T14:30:55.388Z,62.52
2019-02-19T14:33:48.954Z,62.93
2019-02-19T14:36:21.183Z,62.75
2019-02-19T14:39:07.522Z,62.59
2019-02-19T14:41:55.461Z,62.36
2019-02-19T14:44:25.479Z,61.73
2019-02-19T14:46:58.554Z,62.34
2019-02-19T14:49:37.459Z,62.23
2019-02-19T14:52:06.786Z,61.72
2019-02-19T14:54:39.326Z,62.22
2019-02-19T14:57:09.499Z,62.38
2019-02-19T14:59:42.559Z,62.46
2019-02-19T15:02:24.682Z,62.87
2019-02-19T15:05:06.737Z,63.05
2019-02-19T15:07:39.764Z,63.20
2019-02-19T15:10:29.043Z,63.26
2019-02-19T15:13:05.044Z,63.11
2019-02-19T15:15:35.309Z,63.20
2019-02-19T15:18:14.503Z,63.35
2019-02-19T15:21:00.519Z,63.37
2019-02-19T15:23:42.204Z,63.34
2019-02-19T15:26:12.364Z,63.04
2019-02-19T15:28:57.296Z,62.94
2019-02-19T15:31:27.481Z,62.92
2019-02-19T15:34:00.254Z,63.05
2019-02-19T15:36:39.318Z,63.47
2019-02-19T15:39:09.558Z,62.90
2019-02-19T15:41:58.033Z,62.91
2019-02-19T15:44:28.030Z,62.92
2019-02-19T15:47:03.659Z,62.72
2019-02-19T15:49:33.675Z,62.96
2019-02-19T15:52:03.790Z,62.86
2019-02-19T15:54:33.813Z,62.99
2019-02-19T15:57:09.548Z,62.99
2019-02-19T15:59:42.597Z,63.31
2019-02-19T16:02:21.338Z,62.83
2019-02-19T16:04:51.415Z,62.79
2019-02-19T16:07:35.990Z,62.27
2019-02-19T16:10:21.831Z,62.03
2019-02-19T16:12:54.930Z,61.48
2019-02-19T16:15:28.147Z,61.64
2019-02-19T16:18:01.310Z,61.31
2019-02-19T16:20:34.350Z,61.17
2019-02-19T16:23:16.113Z,61.04
2019-02-19T16:26:03.814Z,60.85
2019-02-19T16:28:37.056Z,60.77
2019-02-19T16:31:23.615Z,60.47
2019-02-19T16:33:53.708Z,60.30
2019-02-19T16:36:29.479Z,60.28
2019-02-19T16:39:05.253Z,60.30
2019-02-19T16:41:38.019Z,60.34
2019-02-19T16:44:27.676Z,60.38
2019-02-19T16:46:57.764Z,60.52
2019-02-19T16:49:28.060Z,60.23
2019-02-19T16:51:58.181Z,60.42
2019-02-19T16:54:28.363Z,60.17
2019-02-19T16:56:58.446Z,60.13
2019-02-19T16:59:44.743Z,60.13
2019-02-19T17:02:14.881Z,59.75
2019-02-19T17:04:44.919Z,59.87
2019-02-19T17:07:17.689Z,60.07
2019-02-19T17:09:50.888Z,59.89
2019-02-19T17:12:23.663Z,59.87
2019-02-19T17:14:53.681Z,59.69
2019-02-19T17:17:23.707Z,59.97
2019-02-19T17:20:05.857Z,59.94
2019-02-19T17:22:44.483Z,60.17
2019-02-19T17:25:17.655Z,60.01
2019-02-19T17:28:05.481Z,60.17
2019-02-19T17:30:51.520Z,60.22
2019-02-19T17:33:21.533Z,60.01
2019-02-19T17:35:52.524Z,60.13
2019-02-19T17:38:25.726Z,59.98
2019-02-19T17:41:01.404Z,60.32
2019-02-19T17:43:46.118Z,60.40
2019-02-19T17:46:16.258Z,60.29
2019-02-19T17:48:51.996Z,60.20
2019-02-19T17:51:22.058Z,60.05
2019-02-19T17:54:08.703Z,60.12
2019-02-19T17:56:54.703Z,60.33
2019-02-19T17:59:24.989Z,60.29
2019-02-19T18:01:57.838Z,60.45
2019-02-19T18:04:30.355Z,60.61
2019-02-19T18:07:06.150Z,61.20
2019-02-19T18:09:36.297Z,61.50
2019-02-19T18:12:06.426Z,61.62
2019-02-19T18:14:42.315Z,61.59
2019-02-19T18:17:12.354Z,61.64
2019-02-19T18:19:40.727Z,61.58
2019-02-19T18:22:09.080Z,61.76
2019-02-19T18:24:37.577Z,61.79
2019-02-19T18:27:06.038Z,61.56
2019-02-19T18:29:34.423Z,61.36
2019-02-19T18:32:02.888Z,61.53
2019-02-19T18:34:31.297Z,61.64
2019-02-19T18:36:59.719Z,61.44
2019-02-19T18:39:28.282Z,61.72
2019-02-19T18:41:57.582Z,61.68
2019-02-19T18:44:26.030Z,61.76
2019-02-19T18:46:54.560Z,61.83
2019-02-19T18:49:23.088Z,61.71
2019-02-19T18:51:51.964Z,61.73
2019-02-19T18:54:20.394Z,61.66
2019-02-19T18:56:48.862Z,61.69
2019-02-19T18:59:17.388Z,61.89
2019-02-19T19:01:45.832Z,61.84
2019-02-19T19:04:14.268Z,61.83
2019-02-19T19:06:42.849Z,61.89
2019-02-19T19:09:11.294Z,61.84
2019-02-19T19:11:41.955Z,62.10
2019-02-19T19:14:10.185Z,62.12
2019-02-19T19:16:38.574Z,61.99
2019-02-19T19:19:06.958Z,62.04
2019-02-19T19:21:35.426Z,62.16
2019-02-19T19:24:03.910Z,62.07
2019-02-19T19:26:32.658Z,62.17
2019-02-19T19:29:01.026Z,62.10
2019-02-19T19:31:33.411Z,62.40
2019-02-19T19:33:59.731Z,62.76
2019-02-19T19:36:28.194Z,65.56
2019-02-19T19:38:56.601Z,66.54
2019-02-19T19:41:25.205Z,67.92
2019-02-19T19:43:53.695Z,70.37
2019-02-19T19:46:22.158Z,72.00
2019-02-19T19:48:50.581Z,74.14
2019-02-19T19:51:18.942Z,75.39
2019-02-19T19:53:47.442Z,77.49
2019-02-19T19:56:15.882Z,78.11
2019-02-19T19:58:44.346Z,78.80
2019-02-19T20:01:12.710Z,80.87
2019-02-19T20:03:41.256Z,82.33
2019-02-19T20:06:09.778Z,82.85
2019-02-19T20:08:38.491Z,83.59
2019-02-19T20:11:07.333Z,84.49
2019-02-19T20:13:35.922Z,84.86
2019-02-19T20:16:05.261Z,85.31
2019-02-19T20:18:39.073Z,85.94
2019-02-19T20:21:04.364Z,86.09
2019-02-19T20:23:32.811Z,85.40
2019-02-19T20:26:01.304Z,85.87
2019-02-19T20:28:30.443Z,86.24
2019-02-19T20:30:58.840Z,86.43
2019-02-19T20:33:27.195Z,87.59
2019-02-19T20:35:55.968Z,87.90
2019-02-19T20:38:24.470Z,88.06
2019-02-19T20:40:53.035Z,87.40
2019-02-19T20:43:21.628Z,87.71
2019-02-19T20:45:50.140Z,87.12
2019-02-19T20:48:18.615Z,87.57
2019-02-19T20:50:47.116Z,87.25
2019-02-19T20:53:15.576Z,86.71
2019-02-19T20:55:44.090Z,86.88
2019-02-19T20:58:12.615Z,87.02
2019-02-19T21:00:41.100Z,86.86
2019-02-19T21:03:09.575Z,87.17
2019-02-19T21:05:38.131Z,87.46
2019-02-19T21:08:06.540Z,87.59
2019-02-19T21:10:34.946Z,87.57
2019-02-19T21:13:03.416Z,87.68
2019-02-19T21:15:31.818Z,87.92
2019-02-19T21:18:00.264Z,88.04
2019-02-19T21:20:28.722Z,87.50
2019-02-19T21:22:57.129Z,87.19
2019-02-19T21:25:31.079Z,87.22
2019-02-19T21:27:55.788Z,87.36
2019-02-19T21:30:24.157Z,86.40
2019-02-19T21:32:52.583Z,86.68
2019-02-19T21:35:21.059Z,86.55
2019-02-19T21:37:49.565Z,86.29
2019-02-19T21:40:18.039Z,85.53
2019-02-19T21:42:46.497Z,85.78
2019-02-19T21:45:15.569Z,85.80
2019-02-19T21:47:44.057Z,86.10
2019-02-19T21:50:15.553Z,85.65
2019-02-19T21:52:43.698Z,85.21
2019-02-19T21:55:12.928Z,85.12
2019-02-19T21:57:41.372Z,85.54
2019-02-19T22:00:13.778Z,85.44
2019-02-19T22:02:42.496Z,84.94
2019-02-19T22:05:10.892Z,84.72
2019-02-19T22:07:39.352Z,84.87
2019-02-19T22:10:12.505Z,84.86
2019-02-19T22:12:41.312Z,84.66
2019-02-19T22:15:11.721Z,84.94
2019-02-19T22:17:40.165Z,85.03
2019-02-19T22:20:34.311Z,85.02
2019-02-19T22:23:02.812Z,84.74
2019-02-19T22:25:31.270Z,84.40
2019-02-19T22:28:00.036Z,84.09
2019-02-19T22:30:28.612Z,84.41
2019-02-19T22:32:57.068Z,83.80
2019-02-19T22:35:25.523Z,83.73
2019-02-19T22:37:53.972Z,84.17
2019-02-19T22:40:22.440Z,84.06
2019-02-19T22:42:50.913Z,83.79
2019-02-19T22:45:19.358Z,83.57
2019-02-19T22:47:53.406Z,83.72
2019-02-19T22:50:17.989Z,83.84
2019-02-19T22:52:46.477Z,83.83
2019-02-19T22:55:22.314Z,83.94
2019-02-19T22:57:50.781Z,84.27
2019-02-19T23:00:32.527Z,84.23
2019-02-19T23:03:00.934Z,84.37
2019-02-19T23:05:29.319Z,84.54
2019-02-19T23:07:57.704Z,84.63
2019-02-19T23:10:26.150Z,84.85
2019-02-19T23:12:54.603Z,84.92
2019-02-19T23:15:23.294Z,84.93
2019-02-19T23:17:51.675Z,84.64
2019-02-19T23:20:20.058Z,84.51
2019-02-19T23:22:48.538Z,85.14
2019-02-19T23:25:16.964Z,85.17
2019-02-19T23:27:45.533Z,85.62
2019-02-19T23:30:14.025Z,85.53
2019-02-19T23:32:42.743Z,86.31
2019-02-19T23:35:24.936Z,86.76
2019-02-19T23:37:53.480Z,87.02
2019-02-19T23:40:21.995Z,86.99
2019-02-19T23:42:50.712Z,87.12
2019-02-19T23:45:19.082Z,87.33
2019-02-19T23:47:47.499Z,87.32
2019-02-19T23:50:16.017Z,87.51
2019-02-19T23:52:44.661Z,87.73
2019-02-19T23:55:13.104Z,87.49
2019-02-19T23:57:41.642Z,87.41
